createdAt,value
2018-09-25T00:06:29.000Z,19.18
2018-09-25T00:16:29.000Z,19.14
2018-09-25T00:26:29.000Z,19.11
2018-09-25T00:36:29.000Z,19.08
2018-09-25T00:46:29.000Z,19.05
2018-09-25T00:56:29.000Z,19.02
2018-09-25T01:06:29.000Z,19.01
2018-09-25T01:16:29.000Z,18.98
2018-09-25T01:26:29.000Z,18.96
2018-09-25T01:36:30.000Z,18.94
2018-09-25T01:46:30.000Z,18.97
2018-09-25T01:56:30.000Z,19.05
2018-09-25T02:06:30.000Z,19.12
2018-09-25T02:16:30.000Z,19.19
2018-09-25T02:26:30.000Z,19.24
2018-09-25T02:36:30.000Z,19.28
2018-09-25T02:46:30.000Z,19.32
2018-09-25T02:56:30.000Z,19.37
2018-09-25T03:06:30.000Z,19.41
2018-09-25T03:16:30.000Z,19.42
2018-09-25T03:26:30.000Z,19.44
2018-09-25T03:36:30.000Z,19.45
2018-09-25T03:46:30.000Z,19.49
2018-09-25T03:56:30.000Z,19.52
2018-09-25T04:06:30.000Z,19.57
2018-09-25T04:16:30.000Z,19.58
2018-09-25T04:26:30.000Z,19.57
2018-09-25T04:36:30.000Z,19.67
2018-09-25T04:46:30.000Z,19.77
2018-09-25T04:56:30.000Z,19.81
2018-09-25T05:06:30.000Z,19.87
2018-09-25T05:16:30.000Z,19.99
2018-09-25T05:26:30.000Z,20.08
2018-09-25T05:36:30.000Z,20.08
2018-09-25T05:46:30.000Z,20.17
2018-09-25T05:56:30.000Z,20.25
2018-09-25T06:06:30.000Z,20.32
2018-09-25T06:16:30.000Z,20.38
2018-09-25T06:26:30.000Z,20.42
2018-09-25T06:36:30.000Z,20.52
2018-09-25T06:46:30.000Z,20.56
2018-09-25T06:56:30.000Z,20.63
2018-09-25T07:06:30.000Z,20.8
2018-09-25T07:16:30.000Z,20.95
2018-09-25T07:26:30.000Z,21.13
2018-09-25T07:36:30.000Z,21.28
2018-09-25T07:46:30.000Z,21.43
2018-09-25T07:56:30.000Z,21.55
2018-09-25T08:06:30.000Z,21.64
2018-09-25T08:16:30.000Z,21.75
2018-09-25T08:26:30.000Z,21.87
2018-09-25T08:36:30.000Z,21.96
2018-09-25T08:46:30.000Z,22.15
2018-09-25T08:56:30.000Z,22.32
2018-09-25T09:06:30.000Z,22.45
2018-09-25T09:16:30.000Z,22.63
2018-09-25T09:26:30.000Z,22.97
2018-09-25T09:36:30.000Z,23.1
2018-09-25T09:46:30.000Z,23.22
2018-09-25T09:56:31.000Z,23.28
2018-09-25T10:06:31.000Z,23.61
2018-09-25T10:16:31.000Z,23.49
2018-09-25T10:26:31.000Z,23.8
2018-09-25T10:36:31.000Z,23.65
2018-09-25T10:46:31.000Z,23.68
2018-09-25T10:56:31.000Z,23.61
2018-09-25T11:06:31.000Z,23.73
2018-09-25T11:16:31.000Z,24
2018-09-25T11:26:31.000Z,23.97
2018-09-25T11:36:31.000Z,24.05
2018-09-25T11:46:31.000Z,24.19
2018-09-25T11:56:31.000Z,24.17
2018-09-25T12:06:31.000Z,24.33
2018-09-25T12:16:31.000Z,24.36
2018-09-25T12:26:31.000Z,24.4
2018-09-25T12:36:31.000Z,24.39
2018-09-25T12:46:31.000Z,24.45
2018-09-25T12:56:31.000Z,24.37
2018-09-25T13:06:31.000Z,24.38
2018-09-25T13:16:31.000Z,24.44
2018-09-25T13:26:31.000Z,24.59
2018-09-25T13:36:31.000Z,24.48
2018-09-25T13:46:31.000Z,24.39
2018-09-25T13:56:31.000Z,24.37
2018-09-25T14:06:31.000Z,24.33
2018-09-25T14:16:31.000Z,24.39
2018-09-25T14:26:31.000Z,24.37
2018-09-25T14:36:31.000Z,24.42
2018-09-25T14:46:31.000Z,24.38
2018-09-25T14:56:31.000Z,24.34
2018-09-25T15:06:31.000Z,24.34
2018-09-25T15:16:31.000Z,24.44
2018-09-25T15:26:31.000Z,24.53
2018-09-25T15:36:31.000Z,24.68
2018-09-25T15:46:31.000Z,24.3
2018-09-25T15:56:31.000Z,24.47
2018-09-25T16:06:31.000Z,24.6
2018-09-25T16:16:31.000Z,24.74
2018-09-25T16:26:31.000Z,24.75
2018-09-25T16:36:31.000Z,24.63
2018-09-25T16:46:31.000Z,24.84
2018-09-25T16:56:31.000Z,24.77
2018-09-25T17:06:31.000Z,24.54
2018-09-25T17:16:31.000Z,24.5
2018-09-25T17:26:31.000Z,24.38
2018-09-25T17:36:31.000Z,24.35
2018-09-25T17:46:32.000Z,24.23
2018-09-25T17:56:32.000Z,24.11
2018-09-25T18:06:31.000Z,24.05
2018-09-25T18:16:32.000Z,23.97
2018-09-25T18:26:32.000Z,23.95
2018-09-25T18:36:32.000Z,23.82
2018-09-25T18:46:32.000Z,23.76
2018-09-25T18:56:33.000Z,23.67
2018-09-25T19:06:32.000Z,23.65
2018-09-25T19:16:32.000Z,23.62
2018-09-25T19:26:32.000Z,23.56
2018-09-25T19:36:33.000Z,23.5
2018-09-25T19:46:32.000Z,23.43
2018-09-25T19:56:32.000Z,23.37
2018-09-25T20:06:32.000Z,23.3
2018-09-25T20:16:32.000Z,23.21
2018-09-25T20:26:32.000Z,23.11
2018-09-25T20:36:32.000Z,23.08
2018-09-25T20:46:32.000Z,22.99
2018-09-25T20:56:32.000Z,22.92
2018-09-25T21:06:32.000Z,22.9
2018-09-25T21:16:32.000Z,22.84
2018-09-25T21:26:32.000Z,22.72
2018-09-25T21:36:32.000Z,22.65
2018-09-25T21:46:32.000Z,22.58
2018-09-25T21:56:32.000Z,22.5
2018-09-25T22:06:32.000Z,22.44
2018-09-25T22:16:32.000Z,22.37
2018-09-25T22:26:32.000Z,22.32
2018-09-25T22:36:32.000Z,22.23
2018-09-25T22:46:32.000Z,22.17
2018-09-25T22:56:32.000Z,22.11
2018-09-25T23:06:32.000Z,22.02
2018-09-25T23:16:32.000Z,21.97
2018-09-25T23:26:32.000Z,21.91
2018-09-25T23:36:32.000Z,21.81
2018-09-25T23:46:32.000Z,21.78
2018-09-25T23:56:32.000Z,21.71
